createdAt,value
2018-06-09T00:00:30.111Z,16.57
2018-06-09T00:02:59.416Z,15.93
2018-06-09T00:05:29.559Z,19.57
2018-06-09T00:07:58.641Z,13.93
2018-06-09T00:10:27.706Z,12.80
2018-06-09T00:12:57.290Z,14.33
2018-06-09T00:15:26.380Z,18.50
2018-06-09T00:17:55.563Z,15.80
2018-06-09T00:20:28.241Z,14.00
2018-06-09T00:22:57.284Z,13.70
2018-06-09T00:25:26.586Z,20.57
2018-06-09T00:27:56.141Z,14.43
2018-06-09T00:30:25.897Z,17.27
2018-06-09T00:32:55.451Z,18.77
2018-06-09T00:35:24.690Z,18.40
2018-06-09T00:37:54.270Z,14.23
2018-06-09T00:40:23.464Z,12.87
2018-06-09T00:42:53.172Z,16.50
2018-06-09T00:45:22.210Z,15.07
2018-06-09T00:47:51.690Z,16.73
2018-06-09T00:50:21.256Z,15.20
2018-06-09T00:52:49.976Z,25.30
2018-06-09T00:55:19.425Z,17.40
2018-06-09T00:57:48.715Z,19.47
2018-06-09T01:00:18.334Z,12.70
2018-06-09T01:02:47.548Z,14.37
2018-06-09T01:05:16.872Z,17.53
2018-06-09T01:07:45.902Z,14.23
2018-06-09T01:10:15.224Z,18.33
2018-06-09T01:12:44.770Z,20.43
2018-06-09T01:15:13.798Z,13.27
2018-06-09T01:17:43.416Z,13.90
2018-06-09T01:20:12.978Z,18.37
2018-06-09T01:22:42.142Z,19.23
2018-06-09T01:25:11.229Z,13.63
2018-06-09T01:27:40.572Z,16.17
2018-06-09T01:30:09.646Z,16.13
2018-06-09T01:32:39.027Z,18.70
2018-06-09T01:35:08.324Z,18.57
2018-06-09T01:37:37.616Z,19.13
2018-06-09T01:40:06.687Z,16.20
2018-06-09T01:42:35.943Z,17.20
2018-06-09T01:45:05.152Z,18.93
2018-06-09T01:47:34.264Z,23.30
2018-06-09T01:50:03.566Z,27.93
2018-06-09T01:52:33.013Z,19.70
2018-06-09T01:55:02.038Z,21.03
2018-06-09T01:57:31.431Z,17.80
2018-06-09T02:00:00.578Z,17.67
2018-06-09T02:02:29.592Z,23.50
2018-06-09T02:04:58.828Z,15.10
2018-06-09T02:07:28.190Z,17.90
2018-06-09T02:09:57.227Z,21.00
2018-06-09T02:12:26.374Z,18.77
2018-06-09T02:14:55.798Z,20.17
2018-06-09T02:17:24.916Z,22.60
2018-06-09T02:19:54.518Z,20.20
2018-06-09T02:22:23.702Z,17.70
2018-06-09T02:24:52.762Z,18.70
2018-06-09T02:27:22.417Z,19.30
2018-06-09T02:29:51.635Z,17.83
2018-06-09T02:32:20.678Z,20.13
2018-06-09T02:34:50.319Z,13.97
2018-06-09T02:37:19.360Z,17.90
2018-06-09T02:39:48.379Z,16.63
2018-06-09T02:42:17.724Z,17.30
2018-06-09T02:44:47.336Z,14.97
2018-06-09T02:47:16.637Z,20.53
2018-06-09T02:49:46.235Z,13.50
2018-06-09T02:52:15.337Z,16.67
2018-06-09T02:54:51.837Z,16.43
2018-06-09T02:57:20.949Z,16.20
2018-06-09T02:59:49.893Z,26.67
2018-06-09T03:02:19.377Z,12.20
2018-06-09T03:04:48.589Z,14.30
2018-06-09T03:07:17.686Z,18.00
2018-06-09T03:09:47.275Z,14.27
2018-06-09T03:12:16.573Z,17.60
2018-06-09T03:14:45.718Z,15.23
2018-06-09T03:17:15.021Z,13.50
2018-06-09T03:19:45.461Z,13.80
2018-06-09T03:22:14.525Z,13.47
2018-06-09T03:24:43.733Z,14.83
2018-06-09T03:27:13.177Z,17.10
2018-06-09T03:29:42.296Z,15.40
2018-06-09T03:32:11.592Z,15.10
2018-06-09T03:34:40.569Z,17.00
2018-06-09T03:37:09.694Z,18.23
2018-06-09T03:39:38.995Z,16.00
2018-06-09T03:42:08.179Z,17.63
2018-06-09T03:44:37.321Z,17.60
2018-06-09T03:47:06.895Z,12.63
2018-06-09T03:49:36.278Z,14.90
2018-06-09T03:52:05.309Z,15.50
2018-06-09T03:54:34.800Z,14.90
2018-06-09T03:57:03.933Z,15.83
2018-06-09T03:59:32.981Z,22.43
2018-06-09T04:02:02.699Z,15.77
2018-06-09T04:04:31.873Z,14.10
2018-06-09T04:07:01.559Z,30.43
2018-06-09T04:09:31.000Z,14.70
2018-06-09T04:12:00.280Z,16.80
2018-06-09T04:14:29.342Z,15.07
2018-06-09T04:16:58.798Z,17.33
2018-06-09T04:19:28.302Z,13.13
2018-06-09T04:21:57.339Z,13.83
2018-06-09T04:24:26.891Z,15.13
2018-06-09T04:26:57.085Z,12.30
2018-06-09T04:29:26.477Z,21.60
2018-06-09T04:31:55.912Z,14.17
2018-06-09T04:34:25.039Z,16.17
2018-06-09T04:36:54.759Z,15.10
2018-06-09T04:39:23.891Z,14.73
2018-06-09T04:41:52.906Z,16.50
2018-06-09T04:44:21.845Z,14.27
2018-06-09T04:46:51.107Z,13.60
2018-06-09T04:49:20.697Z,17.90
2018-06-09T04:51:50.489Z,14.70
2018-06-09T04:54:19.723Z,16.20
2018-06-09T04:56:48.880Z,17.20
2018-06-09T04:59:17.918Z,16.77
2018-06-09T05:01:47.618Z,15.90
2018-06-09T05:04:16.709Z,14.20
2018-06-09T05:06:45.811Z,19.20
2018-06-09T05:09:14.973Z,14.87
2018-06-09T05:11:44.403Z,19.80
2018-06-09T05:14:13.460Z,14.77
2018-06-09T05:16:42.925Z,15.13
2018-06-09T05:19:12.287Z,16.00
2018-06-09T05:21:41.411Z,24.53
2018-06-09T05:24:11.158Z,18.17
2018-06-09T05:26:40.493Z,17.60
2018-06-09T05:29:09.539Z,21.73
2018-06-09T05:31:38.733Z,14.90
2018-06-09T05:34:07.966Z,17.87
2018-06-09T05:36:37.132Z,15.03
2018-06-09T05:39:08.463Z,14.80
2018-06-09T05:41:37.597Z,17.90
2018-06-09T05:44:06.839Z,25.43
2018-06-09T05:46:36.359Z,23.13
2018-06-09T05:49:05.495Z,21.80
2018-06-09T05:51:34.821Z,20.63
2018-06-09T05:54:03.858Z,17.23
2018-06-09T05:56:32.913Z,18.17
2018-06-09T05:59:02.305Z,18.43
2018-06-09T06:01:31.739Z,18.33
2018-06-09T06:04:00.822Z,19.10
2018-06-09T06:06:30.699Z,19.90
2018-06-09T06:09:00.559Z,24.27
2018-06-09T06:11:29.653Z,26.27
2018-06-09T06:13:58.701Z,23.17
2018-06-09T06:16:28.013Z,19.50
2018-06-09T06:18:57.369Z,18.47
2018-06-09T06:21:26.436Z,16.03
2018-06-09T06:23:55.379Z,18.63
2018-06-09T06:26:25.488Z,21.33
2018-06-09T06:28:54.655Z,16.30
2018-06-09T06:31:24.069Z,17.00
2018-06-09T06:33:53.198Z,21.00
2018-06-09T06:36:22.275Z,17.03
2018-06-09T06:38:51.849Z,33.03
2018-06-09T06:41:21.431Z,20.20
2018-06-09T06:43:50.551Z,17.10
2018-06-09T06:46:19.863Z,19.07
2018-06-09T06:48:49.585Z,16.73
2018-06-09T06:51:25.625Z,16.97
2018-06-09T06:53:54.889Z,19.00
2018-06-09T06:56:23.921Z,14.37
2018-06-09T06:58:53.625Z,22.70
2018-06-09T07:01:22.821Z,16.57
2018-06-09T07:03:51.891Z,18.77
2018-06-09T07:06:20.944Z,22.60
2018-06-09T07:08:50.009Z,36.13
2018-06-09T07:11:19.157Z,22.07
2018-06-09T07:13:48.625Z,20.73
2018-06-09T07:16:17.758Z,18.00
2018-06-09T07:18:46.898Z,21.30
2018-06-09T07:21:16.207Z,15.80
2018-06-09T07:23:45.374Z,20.40
2018-06-09T07:26:14.471Z,21.37
2018-06-09T07:28:44.303Z,24.80
2018-06-09T07:31:13.108Z,20.63
2018-06-09T07:33:42.146Z,23.00
2018-06-09T07:36:11.366Z,17.93
2018-06-09T07:38:40.816Z,21.23
2018-06-09T07:41:09.865Z,24.00
2018-06-09T07:43:39.033Z,19.53
2018-06-09T07:46:09.279Z,19.73
2018-06-09T07:48:38.463Z,25.73
2018-06-09T07:51:08.003Z,22.00
2018-06-09T07:53:36.966Z,19.23
2018-06-09T07:56:06.019Z,22.00
2018-06-09T07:58:34.990Z,22.40
2018-06-09T08:01:04.267Z,23.30
2018-06-09T08:03:33.318Z,23.77
2018-06-09T08:06:02.695Z,19.70
2018-06-09T08:08:31.898Z,19.10
2018-06-09T08:11:00.988Z,16.70
2018-06-09T08:13:30.472Z,19.50
2018-06-09T08:15:59.502Z,17.67
2018-06-09T08:18:28.444Z,22.80
2018-06-09T08:20:57.756Z,18.20
2018-06-09T08:23:27.248Z,18.77
2018-06-09T08:25:56.349Z,23.50
2018-06-09T08:28:25.958Z,20.07
2018-06-09T08:30:55.254Z,18.33
2018-06-09T08:33:24.422Z,14.80
2018-06-09T08:35:54.303Z,19.73
2018-06-09T08:38:23.546Z,14.53
2018-06-09T08:40:52.604Z,14.73
2018-06-09T08:43:22.182Z,17.17
2018-06-09T08:45:52.327Z,16.67
2018-06-09T08:48:21.424Z,18.00
2018-06-09T08:50:50.904Z,20.70
2018-06-09T08:53:19.882Z,20.20
2018-06-09T08:55:48.910Z,22.80
2018-06-09T08:58:18.043Z,23.90
2018-06-09T09:00:47.406Z,18.20
2018-06-09T09:03:16.459Z,20.50
2018-06-09T09:05:45.680Z,15.47
2018-06-09T09:08:15.014Z,17.47
2018-06-09T09:10:47.246Z,16.50
2018-06-09T09:13:16.640Z,14.30
2018-06-09T09:15:45.685Z,14.63
2018-06-09T09:18:15.146Z,16.70
2018-06-09T09:20:44.299Z,17.37
2018-06-09T09:23:13.352Z,21.40
2018-06-09T09:25:42.935Z,18.93
2018-06-09T09:28:12.109Z,14.80
2018-06-09T09:30:41.319Z,24.23
2018-06-09T09:33:10.580Z,15.37
2018-06-09T09:35:39.987Z,14.33
2018-06-09T09:38:09.082Z,16.80
2018-06-09T09:40:38.346Z,16.23
2018-06-09T09:43:07.486Z,15.90
2018-06-09T09:45:36.594Z,23.00
2018-06-09T09:48:06.477Z,13.60
2018-06-09T09:50:35.609Z,14.63
2018-06-09T09:53:04.460Z,16.80
2018-06-09T09:55:33.628Z,16.30
2018-06-09T09:58:03.125Z,12.60
2018-06-09T10:00:40.037Z,11.20
2018-06-09T10:03:09.377Z,15.70
2018-06-09T10:05:38.442Z,19.60
2018-06-09T10:08:07.914Z,23.80
2018-06-09T10:10:37.318Z,22.50
2018-06-09T10:13:07.174Z,19.20
2018-06-09T10:15:36.732Z,16.10
2018-06-09T10:18:06.014Z,11.70
2018-06-09T10:20:35.040Z,9.60
2018-06-09T10:23:04.821Z,10.80
2018-06-09T10:25:34.086Z,12.30
2018-06-09T10:28:03.341Z,9.53
2018-06-09T10:30:32.839Z,11.97
2018-06-09T10:33:01.982Z,11.60
2018-06-09T10:35:31.094Z,12.27
2018-06-09T10:38:00.444Z,10.50
2018-06-09T10:40:29.879Z,10.07
2018-06-09T10:42:58.931Z,11.40
2018-06-09T10:45:28.523Z,9.00
2018-06-09T10:47:57.652Z,10.17
2018-06-09T10:50:27.286Z,9.40
2018-06-09T10:52:56.169Z,7.03
2018-06-09T10:55:25.692Z,9.40
2018-06-09T10:57:54.947Z,7.20
2018-06-09T11:00:24.477Z,7.00
2018-06-09T11:02:53.583Z,6.97
2018-06-09T11:05:22.658Z,7.87
2018-06-09T11:07:51.881Z,10.77
2018-06-09T11:10:21.438Z,8.10
2018-06-09T11:12:50.481Z,8.67
2018-06-09T11:15:19.946Z,7.47
2018-06-09T11:17:49.370Z,10.73
2018-06-09T11:20:18.450Z,7.43
2018-06-09T11:22:47.650Z,7.20
2018-06-09T11:25:16.891Z,7.73
2018-06-09T11:27:45.959Z,6.70
2018-06-09T11:30:15.108Z,5.73
2018-06-09T11:32:44.465Z,7.73
2018-06-09T11:35:13.515Z,6.57
2018-06-09T11:37:42.671Z,7.57
2018-06-09T11:40:12.116Z,7.37
2018-06-09T11:42:41.135Z,5.53
2018-06-09T11:45:10.620Z,8.27
2018-06-09T11:47:39.810Z,11.43
2018-06-09T11:50:08.889Z,6.23
2018-06-09T11:52:38.236Z,10.33
2018-06-09T11:55:07.600Z,6.53
2018-06-09T11:57:36.620Z,7.10
2018-06-09T12:00:05.897Z,7.07
2018-06-09T12:02:35.047Z,10.87
2018-06-09T12:05:04.077Z,7.33
2018-06-09T12:07:33.378Z,8.77
2018-06-09T12:10:02.781Z,6.73
2018-06-09T12:12:31.809Z,8.57
2018-06-09T12:15:01.286Z,8.33
2018-06-09T12:17:30.783Z,5.37
2018-06-09T12:19:59.929Z,6.63
2018-06-09T12:22:29.677Z,7.27
2018-06-09T12:24:58.824Z,5.90
2018-06-09T12:27:27.877Z,6.03
2018-06-09T12:29:57.399Z,4.97
2018-06-09T12:32:26.534Z,6.00
2018-06-09T12:34:55.599Z,6.47
2018-06-09T12:37:24.981Z,5.53
2018-06-09T12:39:54.939Z,4.93
2018-06-09T12:42:24.019Z,5.90
2018-06-09T12:44:53.257Z,6.03
2018-06-09T12:47:22.681Z,6.47
2018-06-09T12:49:51.729Z,6.43
2018-06-09T12:52:21.397Z,6.87
2018-06-09T12:54:50.587Z,7.57
2018-06-09T12:57:19.263Z,8.30
2018-06-09T12:59:48.680Z,5.33
2018-06-09T13:02:18.077Z,5.60
2018-06-09T13:04:47.235Z,14.00
2018-06-09T13:07:16.769Z,8.23
2018-06-09T13:09:46.056Z,6.60
2018-06-09T13:12:14.791Z,7.73
2018-06-09T13:14:44.057Z,9.50
2018-06-09T13:17:13.161Z,6.20
2018-06-09T13:19:42.161Z,5.77
2018-06-09T13:22:11.951Z,5.80
2018-06-09T13:24:41.109Z,6.43
2018-06-09T13:27:10.187Z,6.00
2018-06-09T13:29:39.853Z,6.10
2018-06-09T13:32:09.003Z,7.20
2018-06-09T13:34:38.111Z,7.67
2018-06-09T13:37:07.885Z,6.40
2018-06-09T13:39:37.217Z,10.77
2018-06-09T13:42:06.921Z,7.70
2018-06-09T13:44:36.095Z,6.27
2018-06-09T13:47:05.204Z,6.30
2018-06-09T13:49:34.528Z,8.00
2018-06-09T13:52:03.830Z,6.17
2018-06-09T13:54:33.424Z,6.00
2018-06-09T13:57:02.651Z,5.90
2018-06-09T13:59:31.910Z,7.13
2018-06-09T14:02:00.957Z,8.00
2018-06-09T14:04:30.250Z,6.10
2018-06-09T14:06:59.493Z,6.93
2018-06-09T14:09:28.633Z,5.57
2018-06-09T14:11:57.724Z,5.67
2018-06-09T14:14:26.877Z,5.60
2018-06-09T14:16:56.010Z,14.03
2018-06-09T14:19:25.148Z,8.40
2018-06-09T14:21:54.459Z,9.07
2018-06-09T14:24:23.571Z,6.70
2018-06-09T14:26:52.874Z,7.70
2018-06-09T14:29:22.122Z,5.63
2018-06-09T14:31:50.866Z,5.60
2018-06-09T14:34:20.092Z,6.70
2018-06-09T14:36:49.719Z,8.77
2018-06-09T14:39:18.866Z,8.60
2018-06-09T14:41:48.621Z,5.63
2018-06-09T14:44:17.850Z,7.20
2018-06-09T14:46:46.955Z,6.90
2018-06-09T14:49:16.451Z,7.20
2018-06-09T14:51:45.977Z,6.70
2018-06-09T14:54:15.105Z,6.10
2018-06-09T14:56:43.964Z,7.53
2018-06-09T14:59:13.642Z,8.03
2018-06-09T15:01:42.740Z,6.47
2018-06-09T15:04:11.946Z,6.53
2018-06-09T15:06:41.128Z,7.43
2018-06-09T15:09:10.221Z,7.70
2018-06-09T15:11:39.133Z,6.07
2018-06-09T15:14:08.276Z,5.90
2018-06-09T15:16:37.014Z,6.93
2018-06-09T15:19:06.191Z,5.80
2018-06-09T15:21:35.888Z,6.40
2018-06-09T15:24:04.955Z,5.83
2018-06-09T15:26:34.160Z,7.23
2018-06-09T15:29:03.212Z,6.40
2018-06-09T15:31:32.224Z,6.83
2018-06-09T15:34:01.574Z,7.30
2018-06-09T15:36:31.191Z,6.27
2018-06-09T15:39:00.321Z,7.00
2018-06-09T15:41:29.499Z,5.50
2018-06-09T15:43:59.278Z,5.33
2018-06-09T15:46:28.378Z,7.13
2018-06-09T15:48:57.744Z,6.63
2018-06-09T15:51:26.992Z,10.37
2018-06-09T15:53:56.113Z,7.73
2018-06-09T15:56:25.279Z,42.80
2018-06-09T15:58:54.676Z,87.77
2018-06-09T16:01:23.730Z,162.60
2018-06-09T16:03:52.754Z,31.20
2018-06-09T16:06:21.967Z,13.13
2018-06-09T16:08:51.238Z,28.40
2018-06-09T16:11:20.734Z,26.80
2018-06-09T16:13:50.264Z,22.30
2018-06-09T16:16:18.931Z,8.43
2018-06-09T16:18:48.219Z,8.37
2018-06-09T16:21:17.561Z,8.27
2018-06-09T16:23:46.584Z,9.07
2018-06-09T16:26:15.766Z,10.40
2018-06-09T16:28:45.266Z,6.70
2018-06-09T16:31:14.371Z,7.73
2018-06-09T16:33:43.724Z,7.67
2018-06-09T16:36:13.152Z,11.03
2018-06-09T16:38:42.212Z,9.13
2018-06-09T16:41:11.496Z,14.07
2018-06-09T16:43:40.748Z,7.90
2018-06-09T16:46:09.806Z,9.83
2018-06-09T16:48:39.084Z,9.10
2018-06-09T16:51:08.206Z,12.33
2018-06-09T16:53:36.966Z,6.23
2018-06-09T16:56:06.256Z,16.20
2018-06-09T16:58:35.618Z,10.33
2018-06-09T17:01:04.805Z,9.23
2018-06-09T17:03:33.987Z,6.37
2018-06-09T17:06:03.327Z,5.27
2018-06-09T17:08:32.408Z,6.20
2018-06-09T17:11:01.647Z,4.47
2018-06-09T17:13:31.520Z,6.90
2018-06-09T17:16:00.562Z,5.07
2018-06-09T17:18:29.690Z,3.53
2018-06-09T17:20:58.936Z,7.70
2018-06-09T17:23:27.970Z,3.40
2018-06-09T17:25:56.996Z,7.17
2018-06-09T17:28:26.628Z,7.70
2018-06-09T17:30:55.692Z,4.23
2018-06-09T17:33:24.804Z,4.70
2018-06-09T17:35:54.207Z,4.07
2018-06-09T17:38:23.286Z,5.53
2018-06-09T17:40:52.310Z,4.70
2018-06-09T17:43:21.635Z,5.20
2018-06-09T17:45:50.712Z,5.33
2018-06-09T17:48:19.758Z,6.33
2018-06-09T17:50:49.388Z,4.73
2018-06-09T17:53:18.422Z,5.67
2018-06-09T17:55:47.544Z,6.83
2018-06-09T17:58:17.294Z,6.43
2018-06-09T18:00:46.396Z,7.10
2018-06-09T18:03:15.438Z,6.80
2018-06-09T18:05:45.402Z,6.70
2018-06-09T18:08:14.390Z,8.67
2018-06-09T18:10:43.432Z,9.37
2018-06-09T18:13:13.122Z,7.17
2018-06-09T18:15:42.214Z,7.70
2018-06-09T18:18:11.282Z,9.47
2018-06-09T18:20:41.004Z,11.30
2018-06-09T18:23:10.017Z,9.13
2018-06-09T18:25:39.070Z,7.70
2018-06-09T18:28:08.482Z,8.47
2018-06-09T18:30:37.610Z,10.00
2018-06-09T18:33:06.678Z,10.43
2018-06-09T18:35:36.204Z,9.40
2018-06-09T18:38:05.296Z,10.70
2018-06-09T18:40:34.992Z,9.47
2018-06-09T18:43:04.378Z,19.03
2018-06-09T18:45:33.461Z,9.17
2018-06-09T18:48:02.468Z,13.90
2018-06-09T18:50:31.860Z,8.60
2018-06-09T18:53:00.688Z,10.70
2018-06-09T18:55:29.772Z,14.23
2018-06-09T18:57:59.570Z,9.63
2018-06-09T19:00:28.568Z,9.67
2018-06-09T19:02:57.684Z,7.53
2018-06-09T19:05:27.518Z,9.70
2018-06-09T19:07:56.594Z,8.47
2018-06-09T19:10:25.705Z,10.37
2018-06-09T19:12:55.364Z,11.87
2018-06-09T19:15:24.518Z,9.03
2018-06-09T19:17:53.525Z,8.63
2018-06-09T19:20:22.605Z,9.40
2018-06-09T19:22:51.496Z,8.77
2018-06-09T19:25:20.522Z,10.27
2018-06-09T19:27:50.090Z,10.73
2018-06-09T19:30:19.128Z,7.97
2018-06-09T19:32:48.160Z,9.40
2018-06-09T19:35:17.436Z,12.37
2018-06-09T19:37:46.543Z,9.73
2018-06-09T19:40:15.570Z,9.90
2018-06-09T19:42:45.428Z,9.40
2018-06-09T19:45:14.542Z,10.80
2018-06-09T19:47:44.292Z,10.10
2018-06-09T19:50:13.938Z,11.17
2018-06-09T19:52:43.000Z,10.37
2018-06-09T19:55:12.130Z,14.10
2018-06-09T19:57:41.838Z,12.30
2018-06-09T20:00:10.888Z,11.23
2018-06-09T20:02:39.929Z,11.10
2018-06-09T20:05:09.271Z,9.77
2018-06-09T20:07:38.378Z,15.10
2018-06-09T20:10:07.442Z,11.53
2018-06-09T20:12:37.029Z,14.67
2018-06-09T20:15:06.199Z,13.13
2018-06-09T20:17:35.288Z,13.00
2018-06-09T20:20:05.426Z,11.27
2018-06-09T20:22:34.176Z,10.73
2018-06-09T20:25:03.159Z,12.00
2018-06-09T20:27:32.327Z,16.53
2018-06-09T20:30:01.478Z,13.50
2018-06-09T20:32:30.591Z,11.60
2018-06-09T20:34:59.919Z,14.30
2018-06-09T20:37:29.035Z,13.30
2018-06-09T20:39:58.066Z,12.70
2018-06-09T20:42:27.893Z,12.30
2018-06-09T20:44:57.036Z,15.50
2018-06-09T20:47:26.058Z,12.20
2018-06-09T20:49:55.600Z,14.47
2018-06-09T20:52:24.705Z,16.50
2018-06-09T20:54:53.867Z,11.63
2018-06-09T20:57:23.805Z,14.80
2018-06-09T20:59:52.873Z,13.77
2018-06-09T21:02:21.973Z,10.73
2018-06-09T21:04:51.213Z,21.00
2018-06-09T21:07:20.214Z,17.87
2018-06-09T21:09:49.299Z,11.73
2018-06-09T21:12:18.589Z,13.80
2018-06-09T21:14:47.748Z,13.07
2018-06-09T21:17:16.853Z,13.37
2018-06-09T21:19:47.081Z,12.70
2018-06-09T21:22:16.101Z,13.13
2018-06-09T21:24:45.145Z,14.20
2018-06-09T21:27:19.656Z,12.83
2018-06-09T21:29:50.631Z,14.40
2018-06-09T21:33:22.992Z,12.40
2018-06-09T21:36:01.736Z,10.00
2018-06-09T21:38:34.029Z,11.00
2018-06-09T21:41:08.453Z,12.20
2018-06-09T21:43:43.672Z,14.60
2018-06-09T21:46:16.992Z,12.50
2018-06-09T21:48:46.206Z,13.53
2018-06-09T21:51:15.810Z,14.63
2018-06-09T21:53:44.915Z,14.20
2018-06-09T21:56:14.475Z,13.80
2018-06-09T21:58:43.537Z,11.50
2018-06-09T22:01:12.654Z,11.63
2018-06-09T22:03:42.256Z,13.87
2018-06-09T22:06:11.012Z,12.33
2018-06-09T22:08:39.645Z,11.37
2018-06-09T22:11:09.335Z,16.00
2018-06-09T22:13:38.421Z,11.93
2018-06-09T22:16:07.521Z,11.10
2018-06-09T22:18:37.441Z,10.83
2018-06-09T22:21:06.507Z,13.70
2018-06-09T22:23:35.543Z,13.10
2018-06-09T22:26:10.257Z,10.30
2018-06-09T22:28:39.419Z,15.50
2018-06-09T22:31:08.957Z,17.07
2018-06-09T22:33:38.770Z,10.10
2018-06-09T22:36:07.699Z,16.80
2018-06-09T22:38:36.949Z,12.90
2018-06-09T22:41:06.172Z,12.67
2018-06-09T22:43:35.215Z,11.37
2018-06-09T22:46:04.749Z,13.53
2018-06-09T22:48:33.547Z,11.17
2018-06-09T22:51:02.555Z,14.03
2018-06-09T22:53:31.695Z,12.83
2018-06-09T22:56:01.741Z,11.83
2018-06-09T22:58:30.783Z,15.30
2018-06-09T23:01:00.392Z,13.43
2018-06-09T23:03:29.615Z,15.90
2018-06-09T23:05:58.689Z,14.87
2018-06-09T23:08:27.969Z,15.13
2018-06-09T23:10:57.543Z,12.13
2018-06-09T23:13:26.587Z,12.40
2018-06-09T23:15:55.884Z,12.23
2018-06-09T23:18:25.560Z,16.77
2018-06-09T23:20:54.315Z,12.20
2018-06-09T23:23:23.623Z,12.27
2018-06-09T23:25:53.261Z,10.87
2018-06-09T23:28:22.333Z,13.27
2018-06-09T23:30:51.641Z,12.93
2018-06-09T23:33:21.356Z,14.53
2018-06-09T23:35:50.206Z,16.50
2018-06-09T23:38:19.557Z,14.60
2018-06-09T23:40:49.678Z,14.13
2018-06-09T23:43:18.749Z,17.20
2018-06-09T23:45:48.101Z,19.40
2018-06-09T23:48:17.597Z,16.60
2018-06-09T23:50:46.641Z,15.60
2018-06-09T23:53:15.912Z,16.70
2018-06-09T23:55:45.482Z,19.60
2018-06-09T23:58:14.616Z,16.53
